DAL1938 KATL-MYNN
Flight info
| Callsign | DAL1938 |
|---|---|
| Flight time | 1h 33m |
| Altitude | 35000 |
| Route | VRSTY3 NOKIE DCT YANTI Q89 SHRKS DCT DEBRL Q97 MALET DCT TRV DCT ZFP BR63V MELON |
| Aircraft | A321/M-SDE3FGHIRWY/LB1 |
Departure
| Time | 2026-05-08 06:37 |
|---|---|
| Airport | Hartsfield Jackson Atlanta International Airport (KATL) |
Arrival
| Time | 2026-05-08 08:11 |
|---|---|
| Airport | Lynden Pindling International Airport (MYNN) |
| Time | Latitude | Longitude | Altitude | Speed | Heading |
|---|---|---|---|---|---|
| 2026-05-08 06:10 | 33.64251 | -84.43973 | 1036 ft | 0 kts | 90° |
| 2026-05-08 06:26 | 33.64251 | -84.43991 | 1035 ft | 4 kts | 91° |
| 2026-05-08 06:26 | 33.64254 | -84.44022 | 1035 ft | 4 kts | 115° |
| 2026-05-08 06:26 | 33.64270 | -84.44045 | 1035 ft | 4 kts | 153° |
| 2026-05-08 06:27 | 33.64287 | -84.44051 | 1035 ft | 1 kts | 180° |
| 2026-05-08 06:27 | 33.64289 | -84.44051 | 1035 ft | 0 kts | 180° |
| 2026-05-08 06:29 | 33.64251 | -84.44051 | 1035 ft | 13 kts | 180° |
| 2026-05-08 06:30 | 33.64137 | -84.44052 | 1035 ft | 17 kts | 180° |
| 2026-05-08 06:30 | 33.64024 | -84.44052 | 1035 ft | 15 kts | 180° |
| 2026-05-08 06:30 | 33.63921 | -84.44052 | 1035 ft | 14 kts | 180° |
| 2026-05-08 06:30 | 33.63828 | -84.44052 | 1035 ft | 13 kts | 180° |
| 2026-05-08 06:31 | 33.63745 | -84.44052 | 1036 ft | 11 kts | 180° |
| 2026-05-08 06:31 | 33.63680 | -84.44033 | 1036 ft | 9 kts | 137° |
| 2026-05-08 06:31 | 33.63665 | -84.43943 | 1036 ft | 15 kts | 90° |
| 2026-05-08 06:31 | 33.63665 | -84.43779 | 1035 ft | 22 kts | 90° |
| 2026-05-08 06:32 | 33.63665 | -84.43583 | 1035 ft | 27 kts | 90° |
| 2026-05-08 06:32 | 33.63665 | -84.43344 | 1035 ft | 29 kts | 90° |
| 2026-05-08 06:32 | 33.63665 | -84.43112 | 1035 ft | 27 kts | 90° |
| 2026-05-08 06:32 | 33.63665 | -84.42893 | 1035 ft | 26 kts | 90° |
| 2026-05-08 06:33 | 33.63660 | -84.42686 | 1036 ft | 24 kts | 94° |
| 2026-05-08 06:33 | 33.63656 | -84.42494 | 1036 ft | 23 kts | 88° |
| 2026-05-08 06:33 | 33.63657 | -84.42310 | 1036 ft | 23 kts | 90° |
| 2026-05-08 06:33 | 33.63656 | -84.42124 | 1036 ft | 22 kts | 90° |
| 2026-05-08 06:34 | 33.63656 | -84.41950 | 1035 ft | 20 kts | 90° |
| 2026-05-08 06:34 | 33.63656 | -84.41753 | 1035 ft | 28 kts | 90° |
| 2026-05-08 06:34 | 33.63656 | -84.41524 | 1035 ft | 27 kts | 90° |
| 2026-05-08 06:34 | 33.63657 | -84.41305 | 1035 ft | 25 kts | 90° |
| 2026-05-08 06:35 | 33.63656 | -84.41102 | 1035 ft | 23 kts | 90° |
| 2026-05-08 06:35 | 33.63657 | -84.40921 | 1035 ft | 21 kts | 90° |
| 2026-05-08 06:35 | 33.63652 | -84.40775 | 1036 ft | 11 kts | 109° |
| 2026-05-08 06:35 | 33.63591 | -84.40751 | 1036 ft | 9 kts | 178° |
| 2026-05-08 06:36 | 33.63536 | -84.40749 | 1036 ft | 8 kts | 179° |
| 2026-05-08 06:36 | 33.63474 | -84.40777 | 1036 ft | 11 kts | 249° |
| 2026-05-08 06:36 | 33.63472 | -84.40868 | 1036 ft | 14 kts | 270° |
| 2026-05-08 06:36 | 33.63472 | -84.41186 | 1034 ft | 71 kts | 270° |
| 2026-05-08 06:37 | 33.63472 | -84.42022 | 1036 ft | 127 kts | 270° |
| 2026-05-08 06:37 | 33.63471 | -84.42807 | 1036 ft | 156 kts | 270° |
| 2026-05-08 06:37 | 33.63470 | -84.44233 | 1249 ft | 175 kts | 270° |
| 2026-05-08 06:37 | 33.63459 | -84.46164 | 2066 ft | 176 kts | 275° |
| 2026-05-08 06:38 | 33.63453 | -84.47161 | 2445 ft | 179 kts | 274° |
| 2026-05-08 06:38 | 33.63435 | -84.49178 | 2880 ft | 194 kts | 274° |
| 2026-05-08 06:38 | 33.63435 | -84.50868 | 3090 ft | 212 kts | 274° |
| 2026-05-08 06:38 | 33.63434 | -84.52072 | 3206 ft | 224 kts | 273° |
| 2026-05-08 06:39 | 33.63445 | -84.54085 | 3249 ft | 253 kts | 274° |
| 2026-05-08 06:39 | 33.63473 | -84.56207 | 3844 ft | 260 kts | 272° |
| 2026-05-08 06:39 | 33.63477 | -84.58374 | 4683 ft | 259 kts | 271° |
| 2026-05-08 06:39 | 33.63475 | -84.60522 | 5584 ft | 255 kts | 270° |
| 2026-05-08 06:40 | 33.63423 | -84.62630 | 6478 ft | 251 kts | 263° |
| 2026-05-08 06:40 | 33.62944 | -84.64635 | 7270 ft | 252 kts | 247° |
| 2026-05-08 06:40 | 33.61975 | -84.66406 | 7981 ft | 257 kts | 232° |
| 2026-05-08 06:40 | 33.60571 | -84.67773 | 8739 ft | 265 kts | 216° |
| 2026-05-08 06:41 | 33.58910 | -84.68803 | 9420 ft | 272 kts | 210° |
| 2026-05-08 06:41 | 33.57049 | -84.69381 | 10116 ft | 284 kts | 195° |
| 2026-05-08 06:41 | 33.55029 | -84.69304 | 10731 ft | 299 kts | 181° |
| 2026-05-08 06:41 | 33.52961 | -84.68905 | 11318 ft | 303 kts | 181° |
| 2026-05-08 06:42 | 33.50852 | -84.68492 | 11898 ft | 307 kts | 181° |
| 2026-05-08 06:42 | 33.48730 | -84.68080 | 12487 ft | 311 kts | 181° |
| 2026-05-08 06:42 | 33.46584 | -84.67668 | 13108 ft | 314 kts | 181° |
| 2026-05-08 06:42 | 33.44422 | -84.67070 | 13647 ft | 329 kts | 169° |
| 2026-05-08 06:43 | 33.42348 | -84.65751 | 14171 ft | 348 kts | 152° |
| 2026-05-08 06:43 | 33.40533 | -84.63673 | 14351 ft | 378 kts | 133° |
| 2026-05-08 06:43 | 33.39116 | -84.60913 | 14486 ft | 400 kts | 124° |
| 2026-05-08 06:43 | 33.37732 | -84.57992 | 14593 ft | 417 kts | 124° |
| 2026-05-08 06:44 | 33.36276 | -84.54929 | 14826 ft | 429 kts | 124° |
| 2026-05-08 06:44 | 33.34772 | -84.51775 | 15278 ft | 433 kts | 124° |
| 2026-05-08 06:44 | 33.33286 | -84.48669 | 15759 ft | 437 kts | 124° |
| 2026-05-08 06:44 | 33.31759 | -84.45498 | 16246 ft | 440 kts | 124° |
| 2026-05-08 06:45 | 33.30219 | -84.42311 | 16726 ft | 444 kts | 124° |
| 2026-05-08 06:45 | 33.28663 | -84.39101 | 17211 ft | 447 kts | 125° |
| 2026-05-08 06:45 | 33.27098 | -84.35875 | 17705 ft | 451 kts | 125° |
| 2026-05-08 06:45 | 33.25522 | -84.32624 | 18180 ft | 454 kts | 125° |
| 2026-05-08 06:46 | 33.23931 | -84.29343 | 18598 ft | 457 kts | 125° |
| 2026-05-08 06:46 | 33.22334 | -84.26051 | 18993 ft | 460 kts | 125° |
| 2026-05-08 06:46 | 33.20724 | -84.22735 | 19364 ft | 463 kts | 125° |
| 2026-05-08 06:46 | 33.19106 | -84.19408 | 19745 ft | 466 kts | 125° |
| 2026-05-08 06:47 | 33.17475 | -84.16061 | 20132 ft | 468 kts | 125° |
| 2026-05-08 06:47 | 33.15836 | -84.12693 | 20512 ft | 471 kts | 125° |
| 2026-05-08 06:47 | 33.14179 | -84.09292 | 20896 ft | 473 kts | 125° |
| 2026-05-08 06:47 | 33.12522 | -84.05891 | 21264 ft | 476 kts | 126° |
| 2026-05-08 06:48 | 33.10848 | -84.02468 | 21648 ft | 478 kts | 126° |
| 2026-05-08 06:48 | 33.08975 | -83.99217 | 22011 ft | 473 kts | 136° |
| 2026-05-08 06:48 | 33.06752 | -83.96361 | 22388 ft | 467 kts | 145° |
| 2026-05-08 06:48 | 33.04245 | -83.93959 | 22755 ft | 460 kts | 154° |
| 2026-05-08 06:49 | 33.01612 | -83.91777 | 23114 ft | 462 kts | 154° |
| 2026-05-08 06:49 | 32.98969 | -83.89581 | 23459 ft | 465 kts | 154° |
| 2026-05-08 06:49 | 32.96315 | -83.87372 | 23780 ft | 467 kts | 154° |
| 2026-05-08 06:49 | 32.93646 | -83.85147 | 24086 ft | 469 kts | 154° |
| 2026-05-08 06:50 | 32.91005 | -83.82936 | 24390 ft | 472 kts | 154° |
| 2026-05-08 06:50 | 32.88313 | -83.80682 | 24697 ft | 474 kts | 154° |
| 2026-05-08 06:50 | 32.85610 | -83.78426 | 25002 ft | 476 kts | 154° |
| 2026-05-08 06:50 | 32.82895 | -83.76165 | 25288 ft | 478 kts | 154° |
| 2026-05-08 06:51 | 32.80162 | -83.73893 | 25579 ft | 480 kts | 154° |
| 2026-05-08 06:51 | 32.77418 | -83.71615 | 25866 ft | 482 kts | 154° |
| 2026-05-08 06:51 | 32.74659 | -83.69326 | 26151 ft | 484 kts | 154° |
| 2026-05-08 06:51 | 32.71888 | -83.67027 | 26397 ft | 486 kts | 154° |
| 2026-05-08 06:52 | 32.69113 | -83.64723 | 26660 ft | 489 kts | 154° |
| 2026-05-08 06:52 | 32.66332 | -83.62364 | 26925 ft | 493 kts | 153° |
| 2026-05-08 06:52 | 32.63561 | -83.59933 | 27191 ft | 496 kts | 152° |
| 2026-05-08 06:52 | 32.60801 | -83.57459 | 27449 ft | 498 kts | 151° |
| 2026-05-08 06:53 | 32.58039 | -83.54966 | 27702 ft | 500 kts | 151° |
| 2026-05-08 06:53 | 32.55261 | -83.52468 | 27959 ft | 502 kts | 152° |
| 2026-05-08 06:53 | 32.52461 | -83.49977 | 28200 ft | 504 kts | 152° |
| 2026-05-08 06:53 | 32.49647 | -83.47497 | 28443 ft | 505 kts | 152° |
| 2026-05-08 06:54 | 32.46816 | -83.45017 | 28686 ft | 507 kts | 152° |
| 2026-05-08 06:54 | 32.43974 | -83.42531 | 28887 ft | 509 kts | 152° |
| 2026-05-08 06:54 | 32.41159 | -83.40068 | 29115 ft | 511 kts | 152° |
| 2026-05-08 06:54 | 32.38297 | -83.37561 | 29355 ft | 513 kts | 152° |
| 2026-05-08 06:55 | 32.35428 | -83.35047 | 29573 ft | 515 kts | 152° |
| 2026-05-08 06:55 | 32.32543 | -83.32516 | 29836 ft | 516 kts | 152° |
| 2026-05-08 06:55 | 32.29664 | -83.29987 | 30156 ft | 516 kts | 152° |
| 2026-05-08 06:55 | 32.26782 | -83.27460 | 30442 ft | 515 kts | 152° |
| 2026-05-08 06:56 | 32.23905 | -83.24939 | 30728 ft | 514 kts | 152° |
| 2026-05-08 06:56 | 32.21035 | -83.22427 | 31009 ft | 514 kts | 152° |
| 2026-05-08 06:56 | 32.18168 | -83.19922 | 31314 ft | 513 kts | 153° |
| 2026-05-08 06:56 | 32.15298 | -83.17422 | 31557 ft | 512 kts | 153° |
| 2026-05-08 06:57 | 32.12438 | -83.14936 | 31831 ft | 511 kts | 153° |
| 2026-05-08 06:57 | 32.09572 | -83.12444 | 32094 ft | 511 kts | 153° |
| 2026-05-08 06:57 | 32.06714 | -83.09958 | 32378 ft | 510 kts | 153° |
| 2026-05-08 06:57 | 32.03865 | -83.07477 | 32661 ft | 509 kts | 153° |
| 2026-05-08 06:58 | 32.01014 | -83.04998 | 32963 ft | 508 kts | 153° |
| 2026-05-08 06:58 | 31.98175 | -83.02533 | 33253 ft | 507 kts | 153° |
| 2026-05-08 06:58 | 31.95334 | -83.00068 | 33558 ft | 506 kts | 154° |
| 2026-05-08 06:58 | 31.92501 | -82.97611 | 33847 ft | 505 kts | 154° |
| 2026-05-08 06:59 | 31.89670 | -82.95163 | 34111 ft | 504 kts | 154° |
| 2026-05-08 06:59 | 31.86845 | -82.92724 | 34288 ft | 504 kts | 153° |
| 2026-05-08 06:59 | 31.84014 | -82.90279 | 34430 ft | 505 kts | 153° |
| 2026-05-08 06:59 | 31.81175 | -82.87828 | 34604 ft | 506 kts | 153° |
| 2026-05-08 07:00 | 31.78336 | -82.85376 | 34786 ft | 507 kts | 153° |
| 2026-05-08 07:00 | 31.75562 | -82.82882 | 34947 ft | 510 kts | 151° |
| 2026-05-08 07:00 | 31.70059 | -82.77613 | 35000 ft | 510 kts | 149° |
| 2026-05-08 07:01 | 31.64612 | -82.72277 | 34996 ft | 510 kts | 149° |
| 2026-05-08 07:01 | 31.59112 | -82.67019 | 35012 ft | 509 kts | 150° |
| 2026-05-08 07:02 | 31.53599 | -82.61838 | 35016 ft | 508 kts | 150° |
| 2026-05-08 07:02 | 31.48084 | -82.56653 | 35018 ft | 508 kts | 150° |
| 2026-05-08 07:03 | 31.42573 | -82.51462 | 35020 ft | 508 kts | 150° |
| 2026-05-08 07:03 | 31.37067 | -82.46266 | 35021 ft | 508 kts | 150° |
| 2026-05-08 07:04 | 31.31556 | -82.41073 | 35028 ft | 508 kts | 150° |
| 2026-05-08 07:04 | 31.26045 | -82.35897 | 35005 ft | 508 kts | 150° |
| 2026-05-08 07:05 | 31.20572 | -82.30775 | 35023 ft | 507 kts | 150° |
| 2026-05-08 07:05 | 31.15064 | -82.25625 | 35025 ft | 507 kts | 150° |
| 2026-05-08 07:06 | 31.09561 | -82.20480 | 35015 ft | 507 kts | 150° |
| 2026-05-08 07:06 | 31.04048 | -82.15339 | 35009 ft | 506 kts | 150° |
| 2026-05-08 07:07 | 30.98546 | -82.10211 | 34982 ft | 506 kts | 149° |
| 2026-05-08 07:07 | 30.93051 | -82.05091 | 34996 ft | 505 kts | 150° |
| 2026-05-08 07:08 | 30.87556 | -81.99990 | 35000 ft | 505 kts | 150° |
| 2026-05-08 07:08 | 30.82064 | -81.94896 | 35004 ft | 505 kts | 150° |
| 2026-05-08 07:09 | 30.76562 | -81.89815 | 35006 ft | 504 kts | 150° |
| 2026-05-08 07:09 | 30.71076 | -81.84745 | 35007 ft | 504 kts | 150° |
| 2026-05-08 07:10 | 30.65590 | -81.79670 | 34992 ft | 504 kts | 149° |
| 2026-05-08 07:10 | 30.59781 | -81.75417 | 35012 ft | 483 kts | 166° |
| 2026-05-08 07:11 | 30.53606 | -81.72440 | 35012 ft | 480 kts | 167° |
| 2026-05-08 07:11 | 30.47431 | -81.69471 | 35013 ft | 480 kts | 167° |
| 2026-05-08 07:12 | 30.41303 | -81.66506 | 35015 ft | 480 kts | 167° |
| 2026-05-08 07:12 | 30.35131 | -81.63532 | 35001 ft | 480 kts | 167° |
| 2026-05-08 07:13 | 30.28961 | -81.60569 | 35023 ft | 480 kts | 167° |
| 2026-05-08 07:13 | 30.22781 | -81.57605 | 35020 ft | 480 kts | 167° |
| 2026-05-08 07:14 | 30.16603 | -81.54646 | 35010 ft | 480 kts | 167° |
| 2026-05-08 07:14 | 30.10427 | -81.51692 | 34975 ft | 480 kts | 167° |
| 2026-05-08 07:15 | 30.04252 | -81.48740 | 34998 ft | 480 kts | 167° |
| 2026-05-08 07:15 | 29.98071 | -81.45792 | 35011 ft | 481 kts | 167° |
| 2026-05-08 07:16 | 29.91889 | -81.42844 | 35020 ft | 481 kts | 167° |
| 2026-05-08 07:16 | 29.85708 | -81.39906 | 35022 ft | 481 kts | 167° |
| 2026-05-08 07:17 | 29.79524 | -81.36965 | 35003 ft | 481 kts | 166° |
| 2026-05-08 07:17 | 29.73334 | -81.34026 | 35010 ft | 481 kts | 166° |
| 2026-05-08 07:18 | 29.67145 | -81.31089 | 35014 ft | 481 kts | 166° |
| 2026-05-08 07:18 | 29.60950 | -81.28159 | 35013 ft | 481 kts | 166° |
| 2026-05-08 07:19 | 29.54759 | -81.25236 | 35018 ft | 481 kts | 166° |
| 2026-05-08 07:19 | 29.48569 | -81.22311 | 35011 ft | 481 kts | 166° |
| 2026-05-08 07:20 | 29.42377 | -81.19389 | 35030 ft | 481 kts | 166° |
| 2026-05-08 07:20 | 29.36188 | -81.16470 | 35010 ft | 481 kts | 166° |
| 2026-05-08 07:21 | 29.29994 | -81.13558 | 35018 ft | 481 kts | 166° |
| 2026-05-08 07:21 | 29.23785 | -81.10740 | 34996 ft | 479 kts | 167° |
| 2026-05-08 07:22 | 29.17559 | -81.08035 | 35015 ft | 478 kts | 167° |
| 2026-05-08 07:22 | 29.11375 | -81.05348 | 35020 ft | 479 kts | 167° |
| 2026-05-08 07:23 | 29.05156 | -81.02599 | 35009 ft | 479 kts | 167° |
| 2026-05-08 07:23 | 28.98948 | -80.99847 | 35009 ft | 479 kts | 167° |
| 2026-05-08 07:24 | 28.92729 | -80.97113 | 34987 ft | 479 kts | 167° |
| 2026-05-08 07:24 | 28.86509 | -80.94384 | 34993 ft | 479 kts | 167° |
| 2026-05-08 07:25 | 28.80291 | -80.91660 | 34994 ft | 479 kts | 167° |
| 2026-05-08 07:26 | 28.71998 | -80.88039 | 34984 ft | 479 kts | 167° |
| 2026-05-08 07:26 | 28.65758 | -80.85387 | 34993 ft | 478 kts | 168° |
| 2026-05-08 07:27 | 28.59456 | -80.83022 | 34988 ft | 476 kts | 170° |
| 2026-05-08 07:27 | 28.53148 | -80.80750 | 34996 ft | 475 kts | 169° |
| 2026-05-08 07:28 | 28.46852 | -80.78425 | 35002 ft | 476 kts | 169° |
| 2026-05-08 07:28 | 28.40561 | -80.76052 | 35004 ft | 476 kts | 169° |
| 2026-05-08 07:29 | 28.34269 | -80.73681 | 34988 ft | 476 kts | 169° |
| 2026-05-08 07:29 | 28.27969 | -80.71325 | 34998 ft | 476 kts | 169° |
| 2026-05-08 07:30 | 28.21668 | -80.68975 | 35014 ft | 477 kts | 169° |
| 2026-05-08 07:30 | 28.15373 | -80.66622 | 35018 ft | 477 kts | 169° |
| 2026-05-08 07:31 | 28.09074 | -80.64265 | 35024 ft | 476 kts | 169° |
| 2026-05-08 07:31 | 28.02777 | -80.61918 | 34999 ft | 476 kts | 168° |
| 2026-05-08 07:32 | 27.96480 | -80.59590 | 35009 ft | 476 kts | 168° |
| 2026-05-08 07:32 | 27.90182 | -80.57262 | 35014 ft | 476 kts | 168° |
| 2026-05-08 07:33 | 27.83880 | -80.54919 | 35024 ft | 476 kts | 168° |
| 2026-05-08 07:33 | 27.77588 | -80.52572 | 35018 ft | 476 kts | 168° |
| 2026-05-08 07:34 | 27.71369 | -80.49945 | 35008 ft | 483 kts | 157° |
| 2026-05-08 07:34 | 27.65927 | -80.45370 | 35012 ft | 496 kts | 137° |
| 2026-05-08 07:35 | 27.61772 | -80.39106 | 35011 ft | 501 kts | 128° |
| 2026-05-08 07:35 | 27.57808 | -80.32644 | 35013 ft | 501 kts | 128° |
| 2026-05-08 07:36 | 27.53828 | -80.26192 | 35015 ft | 502 kts | 128° |
| 2026-05-08 07:36 | 27.49836 | -80.19740 | 35016 ft | 502 kts | 128° |
| 2026-05-08 07:37 | 27.45847 | -80.13294 | 35013 ft | 502 kts | 128° |
| 2026-05-08 07:37 | 27.41850 | -80.06847 | 35011 ft | 502 kts | 128° |
| 2026-05-08 07:38 | 27.37874 | -80.00459 | 35014 ft | 502 kts | 128° |
| 2026-05-08 07:38 | 27.33877 | -79.94025 | 35016 ft | 502 kts | 128° |
| 2026-05-08 07:39 | 27.29874 | -79.87586 | 35019 ft | 502 kts | 128° |
| 2026-05-08 07:39 | 27.25867 | -79.81159 | 35015 ft | 502 kts | 128° |
| 2026-05-08 07:40 | 27.21860 | -79.74741 | 35014 ft | 502 kts | 128° |
| 2026-05-08 07:40 | 27.17851 | -79.68321 | 35016 ft | 502 kts | 128° |
| 2026-05-08 07:41 | 27.13837 | -79.61908 | 35011 ft | 502 kts | 128° |
| 2026-05-08 07:41 | 27.09817 | -79.55503 | 35008 ft | 502 kts | 128° |
| 2026-05-08 07:42 | 27.05797 | -79.49108 | 35001 ft | 501 kts | 127° |
| 2026-05-08 07:42 | 27.01778 | -79.42712 | 35018 ft | 501 kts | 127° |
| 2026-05-08 07:43 | 26.97766 | -79.36328 | 35029 ft | 501 kts | 127° |
| 2026-05-08 07:43 | 26.93751 | -79.29960 | 35022 ft | 500 kts | 128° |
| 2026-05-08 07:44 | 26.89737 | -79.23603 | 35019 ft | 499 kts | 128° |
| 2026-05-08 07:44 | 26.85736 | -79.17271 | 35015 ft | 499 kts | 128° |
| 2026-05-08 07:45 | 26.81720 | -79.10925 | 35015 ft | 498 kts | 128° |
| 2026-05-08 07:45 | 26.77710 | -79.04610 | 35007 ft | 498 kts | 128° |
| 2026-05-08 07:46 | 26.73696 | -78.98301 | 35003 ft | 497 kts | 128° |
| 2026-05-08 07:46 | 26.69692 | -78.91994 | 35015 ft | 497 kts | 128° |
| 2026-05-08 07:47 | 26.65688 | -78.85705 | 35016 ft | 496 kts | 128° |
| 2026-05-08 07:47 | 26.61681 | -78.79425 | 35010 ft | 496 kts | 128° |
| 2026-05-08 07:48 | 26.57710 | -78.73207 | 35028 ft | 495 kts | 128° |
| 2026-05-08 07:48 | 26.53666 | -78.66971 | 35021 ft | 495 kts | 130° |
| 2026-05-08 07:49 | 26.49400 | -78.60931 | 35008 ft | 495 kts | 132° |
| 2026-05-08 07:49 | 26.45042 | -78.54974 | 34998 ft | 496 kts | 131° |
| 2026-05-08 07:50 | 26.40715 | -78.48975 | 34999 ft | 497 kts | 131° |
| 2026-05-08 07:50 | 26.36426 | -78.42931 | 34987 ft | 497 kts | 130° |
| 2026-05-08 07:51 | 26.32141 | -78.36891 | 34813 ft | 496 kts | 130° |
| 2026-05-08 07:51 | 26.29981 | -78.33860 | 33762 ft | 507 kts | 130° |
| 2026-05-08 07:51 | 26.27772 | -78.30770 | 32475 ft | 510 kts | 130° |
| 2026-05-08 07:51 | 26.25562 | -78.27682 | 31189 ft | 507 kts | 130° |
| 2026-05-08 07:52 | 26.23374 | -78.24626 | 30046 ft | 501 kts | 130° |
| 2026-05-08 07:52 | 26.21222 | -78.21614 | 28810 ft | 493 kts | 130° |
| 2026-05-08 07:52 | 26.19110 | -78.18656 | 27656 ft | 484 kts | 130° |
| 2026-05-08 07:52 | 26.17060 | -78.15791 | 26575 ft | 475 kts | 130° |
| 2026-05-08 07:53 | 26.15013 | -78.12935 | 25517 ft | 467 kts | 130° |
| 2026-05-08 07:53 | 26.13003 | -78.10138 | 24496 ft | 459 kts | 130° |
| 2026-05-08 07:53 | 26.11021 | -78.07388 | 23496 ft | 451 kts | 130° |
| 2026-05-08 07:53 | 26.09078 | -78.04690 | 22915 ft | 441 kts | 130° |
| 2026-05-08 07:54 | 26.07176 | -78.02044 | 22491 ft | 435 kts | 130° |
| 2026-05-08 07:54 | 26.05299 | -77.99432 | 22027 ft | 429 kts | 130° |
| 2026-05-08 07:54 | 26.03442 | -77.96850 | 21572 ft | 424 kts | 129° |
| 2026-05-08 07:54 | 26.01612 | -77.94299 | 21116 ft | 420 kts | 129° |
| 2026-05-08 07:55 | 25.99799 | -77.91772 | 20652 ft | 416 kts | 129° |
| 2026-05-08 07:55 | 25.97996 | -77.89272 | 20184 ft | 413 kts | 129° |
| 2026-05-08 07:55 | 25.96201 | -77.86791 | 19733 ft | 410 kts | 129° |
| 2026-05-08 07:55 | 25.94421 | -77.84330 | 19260 ft | 407 kts | 129° |
| 2026-05-08 07:56 | 25.92654 | -77.81886 | 18796 ft | 405 kts | 129° |
| 2026-05-08 07:56 | 25.90898 | -77.79453 | 18294 ft | 404 kts | 128° |
| 2026-05-08 07:56 | 25.89142 | -77.77020 | 17795 ft | 401 kts | 128° |
| 2026-05-08 07:56 | 25.87404 | -77.74610 | 17331 ft | 397 kts | 128° |
| 2026-05-08 07:57 | 25.85683 | -77.72228 | 16883 ft | 394 kts | 129° |
| 2026-05-08 07:57 | 25.83974 | -77.69867 | 16431 ft | 391 kts | 129° |
| 2026-05-08 07:57 | 25.82279 | -77.67528 | 15992 ft | 387 kts | 129° |
| 2026-05-08 07:57 | 25.80594 | -77.65208 | 15553 ft | 384 kts | 129° |
| 2026-05-08 07:58 | 25.78924 | -77.62907 | 15116 ft | 382 kts | 129° |
| 2026-05-08 07:58 | 25.77264 | -77.60621 | 14680 ft | 379 kts | 129° |
| 2026-05-08 07:58 | 25.75617 | -77.58351 | 14245 ft | 376 kts | 129° |
| 2026-05-08 07:58 | 25.73981 | -77.56097 | 13806 ft | 374 kts | 129° |
| 2026-05-08 07:59 | 25.72354 | -77.53856 | 13337 ft | 371 kts | 129° |
| 2026-05-08 07:59 | 25.70699 | -77.51683 | 12890 ft | 367 kts | 135° |
| 2026-05-08 07:59 | 25.68694 | -77.49959 | 12456 ft | 364 kts | 150° |
| 2026-05-08 07:59 | 25.66423 | -77.48866 | 12018 ft | 360 kts | 164° |
| 2026-05-08 08:00 | 25.63974 | -77.48423 | 11580 ft | 357 kts | 177° |
| 2026-05-08 08:00 | 25.61500 | -77.48281 | 11140 ft | 355 kts | 176° |
| 2026-05-08 08:00 | 25.59042 | -77.48135 | 10698 ft | 353 kts | 176° |
| 2026-05-08 08:00 | 25.56591 | -77.47984 | 10274 ft | 351 kts | 176° |
| 2026-05-08 08:01 | 25.54200 | -77.47837 | 10160 ft | 338 kts | 176° |
| 2026-05-08 08:01 | 25.51899 | -77.47963 | 10042 ft | 326 kts | 190° |
| 2026-05-08 08:01 | 25.49767 | -77.48700 | 9923 ft | 315 kts | 202° |
| 2026-05-08 08:01 | 25.47767 | -77.49633 | 9637 ft | 310 kts | 202° |
| 2026-05-08 08:02 | 25.45763 | -77.50565 | 9271 ft | 307 kts | 202° |
| 2026-05-08 08:02 | 25.43823 | -77.51465 | 8899 ft | 305 kts | 202° |
| 2026-05-08 08:02 | 25.41866 | -77.52373 | 8495 ft | 304 kts | 202° |
| 2026-05-08 08:02 | 25.39924 | -77.53270 | 8178 ft | 300 kts | 202° |
| 2026-05-08 08:03 | 25.38003 | -77.54154 | 7839 ft | 298 kts | 203° |
| 2026-05-08 08:03 | 25.36101 | -77.55033 | 7484 ft | 295 kts | 203° |
| 2026-05-08 08:03 | 25.34228 | -77.55902 | 6997 ft | 290 kts | 204° |
| 2026-05-08 08:03 | 25.32402 | -77.56746 | 6738 ft | 274 kts | 204° |
| 2026-05-08 08:04 | 25.30723 | -77.57519 | 6630 ft | 248 kts | 204° |
| 2026-05-08 08:04 | 25.29188 | -77.58227 | 6267 ft | 235 kts | 204° |
| 2026-05-08 08:04 | 25.27693 | -77.58920 | 5733 ft | 232 kts | 204° |
| 2026-05-08 08:04 | 25.26209 | -77.59608 | 5149 ft | 232 kts | 205° |
| 2026-05-08 08:05 | 25.24716 | -77.60300 | 4555 ft | 231 kts | 204° |
| 2026-05-08 08:05 | 25.23237 | -77.60984 | 4132 ft | 229 kts | 204° |
| 2026-05-08 08:05 | 25.21777 | -77.61659 | 3938 ft | 226 kts | 203° |
| 2026-05-08 08:05 | 25.20284 | -77.62063 | 3721 ft | 218 kts | 184° |
| 2026-05-08 08:06 | 25.18797 | -77.61878 | 3532 ft | 216 kts | 165° |
| 2026-05-08 08:06 | 25.17482 | -77.61166 | 3307 ft | 206 kts | 146° |
| 2026-05-08 08:06 | 25.16464 | -77.60117 | 3056 ft | 197 kts | 136° |
| 2026-05-08 08:06 | 25.15516 | -77.59063 | 2808 ft | 190 kts | 136° |
| 2026-05-08 08:07 | 25.14590 | -77.58032 | 2569 ft | 188 kts | 136° |
| 2026-05-08 08:07 | 25.13679 | -77.57018 | 2330 ft | 185 kts | 136° |
| 2026-05-08 08:07 | 25.12778 | -77.56015 | 2097 ft | 183 kts | 136° |
| 2026-05-08 08:07 | 25.11885 | -77.55021 | 1843 ft | 177 kts | 136° |
| 2026-05-08 08:08 | 25.11072 | -77.54115 | 1647 ft | 157 kts | 136° |
| 2026-05-08 08:08 | 25.10329 | -77.53288 | 1429 ft | 148 kts | 136° |
| 2026-05-08 08:08 | 25.09611 | -77.52490 | 1250 ft | 145 kts | 136° |
| 2026-05-08 08:08 | 25.08904 | -77.51704 | 1063 ft | 144 kts | 136° |
| 2026-05-08 08:09 | 25.08208 | -77.50930 | 886 ft | 142 kts | 136° |
| 2026-05-08 08:09 | 25.07517 | -77.50159 | 694 ft | 145 kts | 135° |
| 2026-05-08 08:09 | 25.06807 | -77.49364 | 540 ft | 147 kts | 135° |
| 2026-05-08 08:09 | 25.06074 | -77.48557 | 351 ft | 150 kts | 135° |
| 2026-05-08 08:10 | 25.05333 | -77.47738 | 125 ft | 152 kts | 135° |
| 2026-05-08 08:10 | 25.04647 | -77.46976 | 30 ft | 140 kts | 135° |
| 2026-05-08 08:10 | 25.04038 | -77.46298 | 21 ft | 106 kts | 134° |
| 2026-05-08 08:10 | 25.03646 | -77.45861 | 20 ft | 56 kts | 135° |
| 2026-05-08 08:11 | 25.03471 | -77.45668 | 18 ft | 18 kts | 134° |
| 2026-05-08 08:11 | 25.03456 | -77.45592 | 19 ft | 10 kts | 56° |
| 2026-05-08 08:11 | 25.03500 | -77.45540 | 17 ft | 9 kts | 46° |
| 2026-05-08 08:11 | 25.03556 | -77.45512 | 17 ft | 11 kts | 346° |
| 2026-05-08 08:12 | 25.03627 | -77.45584 | 17 ft | 14 kts | 314° |
| 2026-05-08 08:12 | 25.03692 | -77.45657 | 20 ft | 13 kts | 315° |
| 2026-05-08 08:12 | 25.03734 | -77.45702 | 19 ft | 12 kts | 316° |
| 2026-05-08 08:12 | 25.03793 | -77.45769 | 19 ft | 12 kts | 314° |
| 2026-05-08 08:13 | 25.03851 | -77.45834 | 17 ft | 13 kts | 315° |
| 2026-05-08 08:13 | 25.03945 | -77.45938 | 18 ft | 23 kts | 315° |
| 2026-05-08 08:13 | 25.04054 | -77.46060 | 17 ft | 23 kts | 314° |
| 2026-05-08 08:13 | 25.04164 | -77.46182 | 19 ft | 22 kts | 314° |
| 2026-05-08 08:14 | 25.04271 | -77.46302 | 17 ft | 22 kts | 315° |
| 2026-05-08 08:14 | 25.04376 | -77.46417 | 17 ft | 21 kts | 314° |
| 2026-05-08 08:14 | 25.04476 | -77.46530 | 17 ft | 20 kts | 315° |
| 2026-05-08 08:14 | 25.04574 | -77.46638 | 18 ft | 19 kts | 315° |
| 2026-05-08 08:15 | 25.04667 | -77.46740 | 18 ft | 19 kts | 316° |
| 2026-05-08 08:15 | 25.04759 | -77.46838 | 18 ft | 18 kts | 315° |
| 2026-05-08 08:15 | 25.04843 | -77.46933 | 18 ft | 17 kts | 314° |
| 2026-05-08 08:15 | 25.04926 | -77.47026 | 20 ft | 17 kts | 314° |
| 2026-05-08 08:16 | 25.04997 | -77.47107 | 18 ft | 11 kts | 315° |
| 2026-05-08 08:16 | 25.05057 | -77.47095 | 17 ft | 9 kts | 39° |
| 2026-05-08 08:16 | 25.05082 | -77.47036 | 17 ft | 8 kts | 83° |
| 2026-05-08 08:16 | 25.05086 | -77.46992 | 17 ft | 3 kts | 84° |
| 2026-05-08 08:17 | 25.05088 | -77.46972 | 17 ft | 2 kts | 84° |
| 2026-05-08 08:17 | 25.05088 | -77.46968 | 17 ft | 0 kts | 84° |